Latest Weather Observations for Macquarie Island*

IDT60801

Issued at 7:31 pm EDT Monday 27 March 2017 (issued every 30 minutes, with the page automatically refreshed every 10 minutes)

About weather observations | Map of weather stations | Latest weather observations for ANT | Other Formats
Station Details ID: 300004 Name: MACQUARIE ISLAND Lat: -54.50 Lon: 158.94 Height: 6.0 m
Data from the previous 72 hours. | See also: Recent months at Macquarie Island*
Date/Time
EDT
Temp
°C
App
Temp
°C
Dew
Point
°C
Rel
Hum
%
Delta-T
°C
Wind Press
QNH
hPa
Press
MSL
hPa
Rain since
9am
mm
Dir  Spd
km/h
Gust
km/h
Spd
kts
Gust
kts
27/07:00pm 8.7 0.8 7.9 95 0.4 N 39 50 21 27 996.4 - 0.6
27/06:30pm 8.4 0.4 7.6 95 0.4 N 39 48 21 26 997.2 - 0.6
27/06:00pm 8.2 -1.1 7.4 95 0.4 N 46 61 25 33 997.7 - 0.6
27/05:45pm 8.1 -1.3 7.3 95 0.4 N 46 65 25 35 998.2 - 0.6
27/05:30pm 8.0 -1.8 7.1 94 0.4 N 48 63 26 34 998.7 - 0.6
27/05:07pm 7.7 -2.2 6.6 93 0.5 N 48 67 26 36 999.7 - 0.6
27/05:00pm 7.5 -2.1 6.4 93 0.5 N 46 61 25 33 1000.1 - 0.6
27/04:00pm 7.2 -1.5 6.1 93 0.5 N 41 54 22 29 1001.4 - 0.6
27/03:30pm 7.7 -0.5 5.0 83 1.2 N 37 46 20 25 1003.2 - 0.0
27/03:00pm 7.6 0.3 4.7 82 1.3 N 32 41 17 22 1003.9 1004.2 0.0
27/02:30pm 7.4 0.1 4.4 81 1.3 N 32 41 17 22 1005.1 - 0.0
27/02:00pm 7.4 -0.2 4.0 79 1.5 N 33 41 18 22 1006.0 - 0.0
27/01:30pm 7.5 -0.5 3.7 77 1.6 N 35 41 19 22 1006.8 - 0.0
27/01:00pm 7.8 -0.2 4.0 77 1.6 N 35 43 19 23 1007.2 - 0.0
27/12:30pm 7.4 -0.6 3.6 77 1.6 N 35 41 19 22 1008.5 - 0.0
27/12:00pm 7.4 -0.4 3.1 74 1.8 N 33 41 18 22 1008.9 1009.2 0.0
27/11:30am 7.6 0.1 3.3 74 1.8 N 32 39 17 21 1009.6 - 0.0
27/11:00am 7.9 0.8 3.4 73 1.9 N 30 35 16 19 1010.1 - 0.0
27/10:30am 7.7 0.8 2.6 70 2.1 N 28 30 15 16 1010.3 - 0.0
27/10:00am 8.1 2.5 3.2 71 2.1 NNW 22 28 12 15 1010.9 - 0.0
27/09:30am 7.5 1.7 2.4 70 2.1 NNW 22 26 12 14 1010.9 - 0.0
27/09:00am 7.0 1.5 1.7 69 2.2 NW 20 24 11 13 1010.9 1011.2 0.0
27/08:30am 7.3 1.1 2.4 71 2.0 NW 24 30 13 16 1011.3 - 0.0
27/08:00am 6.5 0.3 2.2 74 1.8 WNW 24 28 13 15 1011.7 - 0.0
27/07:30am 6.0 0.1 1.7 74 1.7 WNW 22 26 12 14 1011.4 - 0.0
27/07:00am 5.4 -0.2 1.5 76 1.5 WNW 20 24 11 13 1011.6 - 0.0
27/06:30am 5.8 -0.4 1.9 76 1.6 WNW 24 32 13 17 1011.5 - 0.0
27/06:00am 5.8 -0.5 1.5 74 1.7 WNW 24 32 13 17 1011.7 1012.0 0.0
27/05:30am 6.2 -1.1 2.3 76 1.6 WNW 30 37 16 20 1011.8 - 0.0
27/05:00am 5.8 -1.2 1.7 75 1.6 W 28 39 15 21 1012.0 - 0.0
27/04:30am 5.9 -1.0 2.4 78 1.4 W 28 37 15 20 1011.9 - 0.0
27/04:00am 5.7 -1.3 2.2 78 1.4 W 28 37 15 20 1011.7 - 0.0
27/03:30am 5.6 -2.3 2.3 79 1.3 W 33 46 18 25 1011.6 - 0.0
27/03:18am 6.0 -1.7 2.1 76 1.6 W 32 50 17 27 1011.4 - 0.0
27/03:00am 6.2 -3.1 0.9 69 2.1 W 39 46 21 25 1011.1 1011.4 0.0
27/02:30am 6.2 -3.0 1.5 72 1.9 W 39 50 21 27 1011.0 - 0.0
27/02:00am 6.2 -3.0 1.5 72 1.9 W 39 50 21 27 1011.0 - 0.0
27/01:30am 6.2 -2.9 1.7 73 1.8 W 39 52 21 28 1010.9 - 0.0
27/01:00am 6.1 -3.9 1.2 71 1.9 W 43 54 23 29 1010.8 - 0.0
27/12:30am 5.7 -2.0 2.2 78 1.4 W 32 43 17 23 1010.7 - 0.0
27/12:00am 6.0 -2.3 1.9 75 1.7 W 35 54 19 29 1010.8 1011.1 0.0
 
Date/Time
EDT
Temp
°C
App
Temp
°C
Dew
Point
°C
Rel
Hum
%
Delta-T
°C
Wind Press
QNH
hPa
Press
MSL
hPa
Rain since
9am
mm
Dir  Spd
km/h
Gust
km/h
Spd
kts
Gust
kts
26/11:30pm 6.5 -3.6 1.4 70 2.0 W 44 54 24 29 1010.5 - 0.0
26/11:00pm 6.3 -2.8 1.6 72 1.9 W 39 48 21 26 1010.5 - 0.0
26/10:30pm 6.3 -3.6 1.4 71 2.0 W 43 52 23 28 1010.1 - 0.0
26/10:00pm 6.4 -4.1 1.5 71 2.0 W 46 57 25 31 1010.2 - 0.0
26/09:30pm 6.5 -4.1 0.6 66 2.3 W 46 57 25 31 1009.9 - 0.0
26/09:00pm 6.4 -5.0 0.5 66 2.3 W 50 57 27 31 1009.7 1010.0 0.0
26/08:30pm 6.6 -3.9 1.7 71 2.0 W 46 57 25 31 1009.4 - 0.0
26/08:00pm 6.4 -3.8 0.9 68 2.2 W 44 57 24 31 1008.9 - 0.0
26/07:31pm 6.4 -4.2 0.5 66 2.3 W 46 65 25 35 1008.5 - 0.0
26/07:30pm 6.5 -4.5 0.8 67 2.2 W 48 65 26 35 1008.5 - 0.0
26/07:25pm 6.5 -4.0 1.2 69 2.1 W 46 65 25 35 1008.2 - 0.0
26/07:00pm 6.5 -4.0 1.4 70 2.0 W 46 57 25 31 1008.1 - 0.0
26/06:30pm 6.6 -3.4 2.1 73 1.8 W 44 56 24 30 1007.5 - 0.0
26/06:00pm 6.7 -3.3 2.2 73 1.8 W 44 54 24 29 1007.4 1007.7 0.0
26/05:30pm 7.0 -3.5 1.7 69 2.1 W 46 59 25 32 1007.1 - 0.0
26/05:00pm 7.1 -3.3 1.8 69 2.2 W 46 56 25 30 1006.5 - 0.0
26/04:30pm 7.3 -2.5 2.4 71 2.0 W 43 54 23 29 1006.3 - 0.0
26/04:00pm 7.5 -2.3 2.0 68 2.3 W 43 54 23 29 1005.9 - 0.0
26/03:30pm 7.3 -2.5 2.4 71 2.0 W 43 54 23 29 1005.7 - 0.0
26/03:00pm 7.6 -2.1 2.7 71 2.1 W 43 50 23 27 1005.6 1005.9 0.0
26/02:30pm 7.9 -2.0 3.0 71 2.1 W 44 52 24 28 1005.5 - 0.0
26/02:00pm 8.6 -0.6 3.4 70 2.2 W 41 50 22 27 1005.3 - 0.0
26/01:30pm 8.4 -0.8 3.5 71 2.1 W 41 50 22 27 1005.2 - 0.0
26/01:00pm 8.1 -0.3 3.8 74 1.9 W 37 46 20 25 1005.4 - 0.0
26/12:30pm 8.4 -0.3 4.0 74 1.9 W 39 44 21 24 1005.1 - 0.0
26/12:00pm 8.0 -0.3 4.0 76 1.7 W 37 44 20 24 1005.1 1005.4 0.0
26/11:30am 7.5 -0.9 3.9 78 1.5 W 37 44 20 24 1005.2 - 0.0
26/11:00am 7.6 -0.3 4.4 80 1.4 W 35 41 19 22 1005.2 - 0.0
26/10:30am 7.1 -0.5 3.9 80 1.4 W 33 39 18 21 1005.1 - 0.0
26/10:00am 7.7 0.8 4.7 81 1.3 W 30 35 16 19 1004.6 - 0.0
26/09:30am 7.1 0.9 4.4 83 1.2 W 26 35 14 19 1004.3 - 0.0
26/09:00am 6.9 -0.1 4.0 82 1.2 W 30 37 16 20 1004.2 1004.5 4.2
26/08:30am 6.8 -0.4 5.1 89 0.7 W 32 41 17 22 1004.0 - 4.2
26/08:14am 6.8 -0.5 5.3 90 0.7 W 33 46 18 25 1003.8 - 4.2
26/08:00am 6.9 0.2 5.8 93 0.5 W 30 44 16 24 1003.8 - 4.2
26/07:51am 6.9 0.3 6.0 94 0.4 W 30 48 16 26 1003.7 - 4.2
26/07:30am 7.3 0.4 6.6 95 0.3 W 32 44 17 24 1003.5 - 4.2
26/07:00am 8.0 0.7 7.2 95 0.4 W 35 46 19 25 1003.1 - 4.2
26/06:30am 8.2 0.9 7.4 95 0.4 WNW 35 43 19 23 1002.8 - 4.0
26/06:00am 8.3 0.3 7.5 95 0.4 NW 39 44 21 24 1002.6 1002.9 3.8
26/05:30am 8.5 -0.2 7.7 95 0.4 NW 43 50 23 27 1002.2 - 3.8
26/05:00am 8.6 -0.6 7.8 95 0.4 NW 46 54 25 29 1002.1 - 3.6
26/04:30am 8.6 0.3 7.8 95 0.4 NNW 41 52 22 28 1002.0 - 3.2
26/04:00am 8.7 0.0 7.9 95 0.4 NNW 43 54 23 29 1002.0 - 3.0
26/03:30am 8.7 -0.1 7.9 95 0.4 NNW 44 57 24 31 1002.0 - 3.0
26/03:00am 8.6 -1.8 7.8 95 0.4 NNW 52 61 28 33 1002.2 1002.5 3.0
26/02:30am 8.5 -2.3 7.7 95 0.4 NNW 54 63 29 34 1002.5 - 2.8
26/02:00am 8.5 -2.7 7.7 95 0.4 NNW 56 65 30 35 1002.6 - 2.4
26/01:30am 8.5 -2.7 7.6 94 0.4 NNW 56 65 30 35 1002.8 - 2.2
26/01:00am 8.5 -1.9 7.6 94 0.4 NNW 52 67 28 36 1003.3 - 2.2
26/12:30am 8.5 -1.9 7.6 94 0.4 NNW 52 63 28 34 1003.7 - 2.2
26/12:00am 8.5 -2.3 7.6 94 0.4 NNW 54 65 29 35 1003.9 1004.2 2.0
 
Date/Time
EDT
Temp
°C
App
Temp
°C
Dew
Point
°C
Rel
Hum
%
Delta-T
°C
Wind Press
QNH
hPa
Press
MSL
hPa
Rain since
9am
mm
Dir  Spd
km/h
Gust
km/h
Spd
kts
Gust
kts
25/11:30pm 8.5 -2.3 7.6 94 0.4 NNW 54 67 29 36 1004.2 - 2.0
25/11:00pm 8.4 -2.4 7.5 94 0.4 NNW 54 65 29 35 1004.6 - 2.0
25/10:30pm 8.4 -2.1 7.5 94 0.4 NNW 52 61 28 33 1004.9 - 1.8
25/10:00pm 8.4 -1.7 7.5 94 0.4 NNW 50 61 27 33 1005.3 - 1.8
25/09:30pm 8.3 -1.8 7.4 94 0.4 NNW 50 61 27 33 1005.8 - 1.6
25/09:00pm 8.3 -1.0 7.4 94 0.4 NNW 46 54 25 29 1005.9 1006.2 1.6
25/08:30pm 8.3 -0.7 7.2 93 0.5 NNW 44 57 24 31 1006.2 - 1.4
25/08:00pm 8.2 -0.8 7.1 93 0.5 NNW 44 52 24 28 1006.2 - 1.4
25/07:30pm 8.1 -0.7 7.2 94 0.4 NNW 43 52 23 28 1006.5 - 1.4
25/07:00pm 8.1 -0.7 7.2 94 0.4 NNW 43 50 23 27 1006.6 - 1.2
25/06:30pm 8.1 -0.3 7.2 94 0.4 NNW 41 48 22 26 1006.8 - 1.0
25/06:00pm 8.1 0.0 7.2 94 0.4 NNW 39 48 21 26 1007.0 1007.3 0.8
25/05:30pm 8.1 0.8 7.2 94 0.4 NNW 35 44 19 24 1007.2 - 0.6
25/05:00pm 8.1 0.8 7.0 93 0.5 NW 35 43 19 23 1007.5 - 0.4
25/04:30pm 8.1 0.0 7.2 94 0.4 NW 39 46 21 25 1007.7 - 0.4
25/04:00pm 8.2 0.9 7.4 95 0.4 NNW 35 44 19 24 1008.0 - 0.4
25/03:30pm 8.2 1.3 7.4 95 0.4 NNW 33 41 18 22 1008.2 - 0.4
25/03:00pm 8.2 0.2 7.4 95 0.4 NNW 39 48 21 26 1008.5 1008.8 0.4
25/02:30pm 8.2 -0.2 7.4 95 0.4 NNW 41 46 22 25 1008.8 - 0.4
25/02:00pm 8.1 -0.9 7.3 95 0.4 NNW 44 52 24 28 1009.0 - 0.4
25/01:30pm 8.0 -1.4 7.1 94 0.4 NNW 46 54 25 29 1009.3 - 0.4
25/01:00pm 7.8 -2.0 6.9 94 0.4 NNW 48 57 26 31 1009.6 - 0.2
25/12:30pm 7.6 -2.3 6.5 93 0.5 NNW 48 56 26 30 1010.1 - 0.2
25/12:00pm 7.5 -1.7 6.4 93 0.5 NNW 44 54 24 29 1010.6 1010.9 0.2
25/11:30am 7.4 -0.9 6.3 93 0.5 NNW 39 46 21 25 1011.0 - 0.2
25/11:00am 7.1 0.0 5.7 91 0.6 NNW 32 37 17 20 1011.5 - 0.0
25/10:51am 7.3 0.3 5.9 91 0.6 NNW 32 39 17 21 1011.6 - 0.0
25/10:30am 7.1 0.0 5.4 89 0.8 NNW 32 39 17 21 1011.8 - 0.0
25/10:00am 7.9 0.4 4.7 80 1.4 NW 33 39 18 21 1011.9 - 0.0
25/09:30am 7.6 -0.4 4.0 78 1.6 NW 35 43 19 23 1011.9 - 0.0
25/09:00am 7.3 -0.2 3.7 78 1.5 WNW 32 41 17 22 1012.1 1012.4 0.4
25/08:30am 7.0 -1.1 3.4 78 1.5 WNW 35 41 19 22 1012.1 - 0.4
25/08:00am 6.5 -0.8 2.4 75 1.7 WNW 30 37 16 20 1012.3 - 0.4
25/07:30am 6.2 -1.8 1.7 73 1.8 WNW 33 44 18 24 1012.3 - 0.4
25/07:00am 6.1 -2.3 1.6 73 1.8 W 35 43 19 23 1012.3 - 0.4
25/06:30am 6.2 -1.6 2.7 78 1.4 WNW 33 41 18 22 1012.3 - 0.4
25/06:00am 6.1 -2.4 1.2 71 1.9 W 35 48 19 26 1012.3 1012.6 0.4
25/05:30am 6.3 -3.5 2.0 74 1.7 WNW 43 50 23 27 1012.2 - 0.4
25/05:00am 6.3 -1.7 1.6 72 1.9 WNW 33 46 18 25 1012.3 - 0.4
25/04:30am 6.4 -1.5 2.1 74 1.7 WNW 33 43 18 23 1012.4 - 0.4
25/04:00am 6.3 -3.4 0.8 68 2.2 WNW 41 54 22 29 1012.4 - 0.4
25/03:30am 6.5 -3.3 2.0 73 1.8 W 43 50 23 27 1012.3 - 0.4
25/03:00am 6.5 -2.6 1.6 71 2.0 W 39 50 21 27 1012.1 1012.4 0.4
25/02:30am 6.3 -2.3 2.8 78 1.4 WNW 37 44 20 24 1012.1 - 0.4
25/02:00am 6.1 -3.3 2.6 78 1.4 WNW 41 50 22 27 1012.1 - 0.4
25/01:30am 6.1 -3.7 2.0 75 1.7 W 43 50 23 27 1012.1 - 0.4
25/01:00am 6.5 -2.6 1.6 71 2.0 W 39 52 21 28 1012.2 - 0.4
25/12:30am 6.2 -2.4 2.5 77 1.5 W 37 46 20 25 1012.3 - 0.4
25/12:00am 5.8 -4.7 1.3 73 1.8 W 46 56 25 30 1012.4 1012.7 0.4
 
Date/Time
EDT
Temp
°C
App
Temp
°C
Dew
Point
°C
Rel
Hum
%
Delta-T
°C
Wind Press
QNH
hPa
Press
MSL
hPa
Rain since
9am
mm
Dir  Spd
km/h
Gust
km/h
Spd
kts
Gust
kts
24/11:30pm 6.0 -1.6 2.6 79 1.4 W 32 39 17 21 1012.4 - 0.4
24/11:00pm 6.0 -3.5 1.9 75 1.7 W 41 50 22 27 1012.6 - 0.4
24/10:30pm 6.1 -3.5 1.4 72 1.9 W 41 50 22 27 1012.4 - 0.4
24/10:00pm 5.9 -3.3 1.4 73 1.8 W 39 50 21 27 1012.3 - 0.4
24/09:49pm 6.2 -2.1 2.1 75 1.7 W 35 54 19 29 1012.2 - 0.4
24/09:30pm 6.1 -2.1 0.4 67 2.2 W 33 43 18 23 1012.2 - 0.4
24/09:13pm 6.0 -1.0 1.9 75 1.7 W 28 46 15 25 1012.1 - 0.4
24/09:00pm 5.8 -0.8 2.1 77 1.5 W 26 43 14 23 1012.2 1012.5 0.4
24/08:30pm 5.7 -2.3 1.6 75 1.6 W 33 56 18 30 1011.9 - 0.4
24/08:00pm 5.8 -2.0 1.5 74 1.7 W 32 52 17 28 1011.7 - 0.4
24/07:32pm 6.0 -2.4 1.5 73 1.8 W 35 57 19 31 1011.7 - 0.4

Other Formats:

Comma delimited format used in spreadsheet applications
http://www.bom.gov.au/fwo/IDT60803/IDT60803.94998.axf

JavaScript Object Notation format (JSON) in row-major order
http://www.bom.gov.au/fwo/IDT60803/IDT60803.94998.json